sensor_id;sensor_type;location;lat;lon;timestamp;P1;durP1;ratioP1;P2;durP2;ratioP2
16025;SDS011;8117;52.488;13.460;2023-03-01T00:02:19;5.20;;;3.57;;
16025;SDS011;8117;52.488;13.460;2023-03-01T00:04:52;2.33;;;2.13;;
16025;SDS011;8117;52.488;13.460;2023-03-01T00:07:36;6.27;;;2.47;;
16025;SDS011;8117;52.488;13.460;2023-03-01T00:10:22;3.63;;;2.30;;
16025;SDS011;8117;52.488;13.460;2023-03-01T00:12:57;1.83;;;1.73;;
16025;SDS011;8117;52.488;13.460;2023-03-01T00:15:39;4.23;;;2.57;;
16025;SDS011;8117;52.488;13.460;2023-03-01T00:18:11;4.63;;;3.43;;
16025;SDS011;8117;52.488;13.460;2023-03-01T00:20:48;2.97;;;2.07;;
16025;SDS011;8117;52.488;13.460;2023-03-01T00:23:33;3.83;;;3.43;;
16025;SDS011;8117;52.488;13.460;2023-03-01T00:26:12;3.77;;;3.37;;
16025;SDS011;8117;52.488;13.460;2023-03-01T00:28:44;2.97;;;2.50;;
16025;SDS011;8117;52.488;13.460;2023-03-01T00:31:14;2.57;;;1.60;;
16025;SDS011;8117;52.488;13.460;2023-03-01T00:33:45;2.97;;;2.23;;
16025;SDS011;8117;52.488;13.460;2023-03-01T00:36:15;7.70;;;1.97;;
16025;SDS011;8117;52.488;13.460;2023-03-01T00:38:48;5.63;;;3.00;;
16025;SDS011;8117;52.488;13.460;2023-03-01T00:41:17;4.80;;;2.10;;
16025;SDS011;8117;52.488;13.460;2023-03-01T00:43:49;3.33;;;2.40;;
16025;SDS011;8117;52.488;13.460;2023-03-01T00:46:19;1.50;;;1.40;;
16025;SDS011;8117;52.488;13.460;2023-03-01T00:49:04;1.70;;;1.53;;
16025;SDS011;8117;52.488;13.460;2023-03-01T00:51:31;4.67;;;2.27;;
16025;SDS011;8117;52.488;13.460;2023-03-01T00:54:02;7.93;;;3.07;;
16025;SDS011;8117;52.488;13.460;2023-03-01T00:56:32;7.03;;;3.27;;
16025;SDS011;8117;52.488;13.460;2023-03-01T00:59:11;3.40;;;1.53;;
16025;SDS011;8117;52.488;13.460;2023-03-01T01:01:41;4.17;;;2.03;;
16025;SDS011;8117;52.488;13.460;2023-03-01T01:04:13;5.03;;;2.97;;
16025;SDS011;8117;52.488;13.460;2023-03-01T01:06:48;2.13;;;1.93;;
16025;SDS011;8117;52.488;13.460;2023-03-01T01:09:18;4.63;;;2.73;;
16025;SDS011;8117;52.488;13.460;2023-03-01T01:11:51;2.57;;;2.33;;
16025;SDS011;8117;52.488;13.460;2023-03-01T01:14:23;8.17;;;2.40;;
16025;SDS011;8117;52.488;13.460;2023-03-01T01:16:52;3.53;;;1.90;;
16025;SDS011;8117;52.488;13.460;2023-03-01T01:19:24;6.57;;;4.30;;
16025;SDS011;8117;52.488;13.460;2023-03-01T01:21:53;2.87;;;1.77;;
16025;SDS011;8117;52.488;13.460;2023-03-01T01:24:23;7.50;;;2.93;;
16025;SDS011;8117;52.488;13.460;2023-03-01T01:26:59;1.20;;;1.20;;
16025;SDS011;8117;52.488;13.460;2023-03-01T01:29:33;2.57;;;1.97;;
16025;SDS011;8117;52.488;13.460;2023-03-01T01:32:03;4.27;;;2.80;;
16025;SDS011;8117;52.488;13.460;2023-03-01T01:34:37;5.70;;;2.00;;
16025;SDS011;8117;52.488;13.460;2023-03-01T01:37:15;2.77;;;2.57;;
16025;SDS011;8117;52.488;13.460;2023-03-01T01:39:47;1.50;;;1.40;;
16025;SDS011;8117;52.488;13.460;2023-03-01T01:42:17;6.93;;;3.20;;
16025;SDS011;8117;52.488;13.460;2023-03-01T01:44:46;2.93;;;2.27;;
16025;SDS011;8117;52.488;13.460;2023-03-01T01:47:25;9.80;;;2.57;;
16025;SDS011;8117;52.488;13.460;2023-03-01T01:50:32;3.47;;;2.93;;
16025;SDS011;8117;52.488;13.460;2023-03-01T01:53:26;2.27;;;2.07;;
16025;SDS011;8117;52.488;13.460;2023-03-01T01:56:16;2.77;;;2.47;;
16025;SDS011;8117;52.488;13.460;2023-03-01T01:59:04;2.83;;;2.57;;
16025;SDS011;8117;52.488;13.460;2023-03-01T02:01:43;3.53;;;2.33;;
16025;SDS011;8117;52.488;13.460;2023-03-01T02:04:16;3.70;;;2.43;;
16025;SDS011;8117;52.488;13.460;2023-03-01T02:08:16;5.87;;;2.33;;
16025;SDS011;8117;52.488;13.460;2023-03-01T02:10:40;5.43;;;2.27;;
16025;SDS011;8117;52.488;13.460;2023-03-01T02:13:49;3.37;;;2.73;;
16025;SDS011;8117;52.488;13.460;2023-03-01T02:16:19;3.93;;;3.63;;
16025;SDS011;8117;52.488;13.460;2023-03-01T02:18:52;3.63;;;2.73;;
16025;SDS011;8117;52.488;13.460;2023-03-01T02:21:34;5.23;;;2.93;;
16025;SDS011;8117;52.488;13.460;2023-03-01T02:24:32;6.87;;;2.83;;
16025;SDS011;8117;52.488;13.460;2023-03-01T02:34:20;3.57;;;2.67;;
16025;SDS011;8117;52.488;13.460;2023-03-01T02:36:51;2.20;;;2.03;;
16025;SDS011;8117;52.488;13.460;2023-03-01T02:39:47;6.80;;;2.63;;
16025;SDS011;8117;52.488;13.460;2023-03-01T02:42:40;3.80;;;3.13;;
16025;SDS011;8117;52.488;13.460;2023-03-01T02:45:52;4.00;;;3.30;;
16025;SDS011;8117;52.488;13.460;2023-03-01T02:48:56;2.40;;;1.63;;
16025;SDS011;8117;52.488;13.460;2023-03-01T02:52:38;3.67;;;2.13;;
16025;SDS011;8117;52.488;13.460;2023-03-01T02:59:47;4.23;;;2.67;;
16025;SDS011;8117;52.488;13.460;2023-03-01T03:02:17;2.43;;;2.33;;
16025;SDS011;8117;52.488;13.460;2023-03-01T03:05:16;2.70;;;2.50;;
16025;SDS011;8117;52.488;13.460;2023-03-01T03:08:02;4.23;;;3.00;;
16025;SDS011;8117;52.488;13.460;2023-03-01T03:14:13;3.73;;;2.47;;
16025;SDS011;8117;52.488;13.460;2023-03-01T03:19:54;5.57;;;2.80;;
16025;SDS011;8117;52.488;13.460;2023-03-01T03:20:31;7.77;;;3.93;;
16025;SDS011;8117;52.488;13.460;2023-03-01T03:23:25;4.97;;;2.30;;
16025;SDS011;8117;52.488;13.460;2023-03-01T03:26:36;5.00;;;3.20;;
16025;SDS011;8117;52.488;13.460;2023-03-01T03:29:26;4.33;;;2.73;;
16025;SDS011;8117;52.488;13.460;2023-03-01T03:32:27;1.43;;;1.37;;
16025;SDS011;8117;52.488;13.460;2023-03-01T03:35:08;2.20;;;2.10;;
16025;SDS011;8117;52.488;13.460;2023-03-01T03:37:53;6.07;;;3.03;;
16025;SDS011;8117;52.488;13.460;2023-03-01T03:40:50;7.93;;;2.93;;
16025;SDS011;8117;52.488;13.460;2023-03-01T03:43:39;3.97;;;2.77;;
16025;SDS011;8117;52.488;13.460;2023-03-01T03:46:21;4.40;;;2.40;;
16025;SDS011;8117;52.488;13.460;2023-03-01T03:48:58;2.33;;;1.63;;
16025;SDS011;8117;52.488;13.460;2023-03-01T03:51:38;7.10;;;2.27;;
16025;SDS011;8117;52.488;13.460;2023-03-01T04:04:26;5.50;;;3.47;;
16025;SDS011;8117;52.488;13.460;2023-03-01T04:07:38;4.03;;;3.63;;
16025;SDS011;8117;52.488;13.460;2023-03-01T04:14:17;2.97;;;2.47;;
16025;SDS011;8117;52.488;13.460;2023-03-01T04:16:54;2.57;;;2.37;;
16025;SDS011;8117;52.488;13.460;2023-03-01T04:20:14;2.30;;;2.10;;
16025;SDS011;8117;52.488;13.460;2023-03-01T04:23:11;2.43;;;2.10;;
16025;SDS011;8117;52.488;13.460;2023-03-01T04:25:48;5.17;;;2.83;;
16025;SDS011;8117;52.488;13.460;2023-03-01T04:28:26;2.90;;;2.67;;
16025;SDS011;8117;52.488;13.460;2023-03-01T04:30:56;2.33;;;2.13;;
16025;SDS011;8117;52.488;13.460;2023-03-01T04:33:57;2.97;;;2.77;;
16025;SDS011;8117;52.488;13.460;2023-03-01T04:36:45;2.87;;;2.73;;
16025;SDS011;8117;52.488;13.460;2023-03-01T04:39:48;3.87;;;2.80;;
16025;SDS011;8117;52.488;13.460;2023-03-01T04:45:47;2.70;;;2.47;;
16025;SDS011;8117;52.488;13.460;2023-03-01T04:48:16;4.63;;;2.40;;
16025;SDS011;8117;52.488;13.460;2023-03-01T04:50:52;3.77;;;3.33;;
16025;SDS011;8117;52.488;13.460;2023-03-01T04:53:30;9.30;;;2.73;;
16025;SDS011;8117;52.488;13.460;2023-03-01T04:56:19;3.80;;;3.50;;
16025;SDS011;8117;52.488;13.460;2023-03-01T04:59:19;9.23;;;4.17;;
16025;SDS011;8117;52.488;13.460;2023-03-01T05:01:56;5.20;;;1.93;;
16025;SDS011;8117;52.488;13.460;2023-03-01T05:04:30;5.47;;;3.03;;
16025;SDS011;8117;52.488;13.460;2023-03-01T05:07:09;6.20;;;2.73;;
16025;SDS011;8117;52.488;13.460;2023-03-01T05:16:54;7.70;;;4.30;;
16025;SDS011;8117;52.488;13.460;2023-03-01T05:20:04;6.37;;;2.83;;
16025;SDS011;8117;52.488;13.460;2023-03-01T05:23:06;6.60;;;4.17;;
16025;SDS011;8117;52.488;13.460;2023-03-01T05:39:36;2.80;;;2.53;;
16025;SDS011;8117;52.488;13.460;2023-03-01T06:19:00;7.63;;;3.60;;
16025;SDS011;8117;52.488;13.460;2023-03-01T06:47:51;3.00;;;2.67;;
16025;SDS011;8117;52.488;13.460;2023-03-01T06:50:30;6.43;;;3.57;;
16025;SDS011;8117;52.488;13.460;2023-03-01T06:53:27;4.00;;;2.67;;
16025;SDS011;8117;52.488;13.460;2023-03-01T06:56:40;7.73;;;3.90;;
16025;SDS011;8117;52.488;13.460;2023-03-01T06:59:39;11.30;;;3.83;;
16025;SDS011;8117;52.488;13.460;2023-03-01T07:02:16;5.10;;;2.77;;
16025;SDS011;8117;52.488;13.460;2023-03-01T07:57:14;7.87;;;4.63;;
16025;SDS011;8117;52.488;13.460;2023-03-01T10:05:44;2.43;;;1.63;;
16025;SDS011;8117;52.488;13.460;2023-03-01T10:08:49;8.00;;;1.37;;
16025;SDS011;8117;52.488;13.460;2023-03-01T10:12:07;2.73;;;1.90;;
16025;SDS011;8117;52.488;13.460;2023-03-01T10:14:50;2.87;;;1.63;;
16025;SDS011;8117;52.488;13.460;2023-03-01T10:17:30;2.33;;;1.40;;
16025;SDS011;8117;52.488;13.460;2023-03-01T10:20:28;0.83;;;0.83;;
16025;SDS011;8117;52.488;13.460;2023-03-01T10:23:22;5.03;;;1.27;;
16025;SDS011;8117;52.488;13.460;2023-03-01T10:26:23;2.03;;;1.53;;
16025;SDS011;8117;52.488;13.460;2023-03-01T10:29:31;1.93;;;1.43;;
16025;SDS011;8117;52.488;13.460;2023-03-01T10:32:32;1.70;;;1.47;;
16025;SDS011;8117;52.488;13.460;2023-03-01T10:38:47;1.47;;;1.30;;
16025;SDS011;8117;52.488;13.460;2023-03-01T10:41:23;1.00;;;1.00;;
16025;SDS011;8117;52.488;13.460;2023-03-01T10:43:53;1.17;;;0.87;;
16025;SDS011;8117;52.488;13.460;2023-03-01T10:46:22;0.77;;;0.77;;
16025;SDS011;8117;52.488;13.460;2023-03-01T10:49:00;1.60;;;1.30;;
16025;SDS011;8117;52.488;13.460;2023-03-01T10:51:34;1.97;;;0.77;;
16025;SDS011;8117;52.488;13.460;2023-03-01T10:54:05;1.27;;;1.17;;
16025;SDS011;8117;52.488;13.460;2023-03-01T10:56:48;1.70;;;1.30;;
16025;SDS011;8117;52.488;13.460;2023-03-01T11:22:10;1.67;;;0.93;;
16025;SDS011;8117;52.488;13.460;2023-03-01T11:24:41;2.07;;;1.17;;
16025;SDS011;8117;52.488;13.460;2023-03-01T11:27:55;2.77;;;0.93;;
16025;SDS011;8117;52.488;13.460;2023-03-01T11:30:41;1.63;;;0.97;;
16025;SDS011;8117;52.488;13.460;2023-03-01T11:33:35;2.67;;;0.80;;
16025;SDS011;8117;52.488;13.460;2023-03-01T11:39:26;0.50;;;0.50;;
16025;SDS011;8117;52.488;13.460;2023-03-01T11:42:40;0.70;;;0.70;;
16025;SDS011;8117;52.488;13.460;2023-03-01T11:50:05;7.63;;;0.97;;
16025;SDS011;8117;52.488;13.460;2023-03-01T11:53:19;0.57;;;0.43;;
16025;SDS011;8117;52.488;13.460;2023-03-01T11:56:31;0.63;;;0.63;;
16025;SDS011;8117;52.488;13.460;2023-03-01T13:05:43;0.67;;;0.37;;
16025;SDS011;8117;52.488;13.460;2023-03-01T13:17:04;0.77;;;0.70;;
16025;SDS011;8117;52.488;13.460;2023-03-01T13:19:42;0.97;;;0.70;;
16025;SDS011;8117;52.488;13.460;2023-03-01T13:29:43;1.20;;;0.93;;
16025;SDS011;8117;52.488;13.460;2023-03-01T13:32:32;0.67;;;0.67;;
16025;SDS011;8117;52.488;13.460;2023-03-01T13:36:45;0.37;;;0.30;;
16025;SDS011;8117;52.488;13.460;2023-03-01T13:42:47;0.20;;;0.20;;
16025;SDS011;8117;52.488;13.460;2023-03-01T13:45:57;2.13;;;1.17;;
16025;SDS011;8117;52.488;13.460;2023-03-01T13:55:55;0.97;;;0.70;;
16025;SDS011;8117;52.488;13.460;2023-03-01T14:08:05;0.90;;;0.67;;
16025;SDS011;8117;52.488;13.460;2023-03-01T14:11:02;0.80;;;0.67;;
16025;SDS011;8117;52.488;13.460;2023-03-01T14:20:42;1.50;;;0.83;;
16025;SDS011;8117;52.488;13.460;2023-03-01T14:23:21;1.57;;;0.80;;
16025;SDS011;8117;52.488;13.460;2023-03-01T14:26:12;0.90;;;0.57;;
16025;SDS011;8117;52.488;13.460;2023-03-01T14:28:41;0.77;;;0.50;;
16025;SDS011;8117;52.488;13.460;2023-03-01T14:31:29;1.20;;;0.87;;
16025;SDS011;8117;52.488;13.460;2023-03-01T14:34:16;2.53;;;1.23;;
16025;SDS011;8117;52.488;13.460;2023-03-01T14:36:59;1.60;;;0.87;;
16025;SDS011;8117;52.488;13.460;2023-03-01T14:39:51;0.63;;;0.60;;
16025;SDS011;8117;52.488;13.460;2023-03-01T14:42:40;0.83;;;0.77;;
16025;SDS011;8117;52.488;13.460;2023-03-01T14:45:46;0.70;;;0.53;;
16025;SDS011;8117;52.488;13.460;2023-03-01T14:48:16;0.80;;;0.50;;
16025;SDS011;8117;52.488;13.460;2023-03-01T14:50:45;0.33;;;0.33;;
16025;SDS011;8117;52.488;13.460;2023-03-01T14:53:18;1.10;;;1.00;;
16025;SDS011;8117;52.488;13.460;2023-03-01T14:55:56;1.80;;;0.93;;
16025;SDS011;8117;52.488;13.460;2023-03-01T14:58:32;0.50;;;0.40;;
16025;SDS011;8117;52.488;13.460;2023-03-01T15:01:05;0.77;;;0.50;;
16025;SDS011;8117;52.488;13.460;2023-03-01T15:03:45;1.43;;;0.70;;
16025;SDS011;8117;52.488;13.460;2023-03-01T15:06:57;0.70;;;0.70;;
16025;SDS011;8117;52.488;13.460;2023-03-01T15:09:40;0.73;;;0.73;;
16025;SDS011;8117;52.488;13.460;2023-03-01T15:18:34;1.53;;;1.03;;
16025;SDS011;8117;52.488;13.460;2023-03-01T15:21:46;0.30;;;0.30;;
16025;SDS011;8117;52.488;13.460;2023-03-01T15:24:39;2.43;;;0.93;;
16025;SDS011;8117;52.488;13.460;2023-03-01T15:27:32;1.13;;;1.07;;
16025;SDS011;8117;52.488;13.460;2023-03-01T15:30:34;0.93;;;0.60;;
16025;SDS011;8117;52.488;13.460;2023-03-01T15:33:30;3.10;;;0.93;;
16025;SDS011;8117;52.488;13.460;2023-03-01T15:36:36;0.40;;;0.40;;
16025;SDS011;8117;52.488;13.460;2023-03-01T15:42:09;0.77;;;0.77;;
16025;SDS011;8117;52.488;13.460;2023-03-01T15:45:06;0.47;;;0.37;;
16025;SDS011;8117;52.488;13.460;2023-03-01T15:57:12;0.43;;;0.43;;
16025;SDS011;8117;52.488;13.460;2023-03-01T15:59:42;0.73;;;0.60;;
16025;SDS011;8117;52.488;13.460;2023-03-01T16:02:26;1.30;;;0.50;;
16025;SDS011;8117;52.488;13.460;2023-03-01T16:04:58;3.20;;;0.50;;
16025;SDS011;8117;52.488;13.460;2023-03-01T16:07:58;1.03;;;0.27;;
16025;SDS011;8117;52.488;13.460;2023-03-01T16:10:38;0.30;;;0.30;;
16025;SDS011;8117;52.488;13.460;2023-03-01T16:13:14;1.33;;;0.63;;
16025;SDS011;8117;52.488;13.460;2023-03-01T16:15:41;0.67;;;0.37;;
16025;SDS011;8117;52.488;13.460;2023-03-01T16:18:17;0.77;;;0.77;;
16025;SDS011;8117;52.488;13.460;2023-03-01T16:20:47;0.40;;;0.40;;
16025;SDS011;8117;52.488;13.460;2023-03-01T16:23:24;0.40;;;0.40;;
16025;SDS011;8117;52.488;13.460;2023-03-01T16:25:54;0.60;;;0.60;;
16025;SDS011;8117;52.488;13.460;2023-03-01T16:28:30;0.40;;;0.33;;
16025;SDS011;8117;52.488;13.460;2023-03-01T16:31:03;1.20;;;0.80;;
16025;SDS011;8117;52.488;13.460;2023-03-01T16:33:30;0.20;;;0.20;;
16025;SDS011;8117;52.488;13.460;2023-03-01T16:35:59;0.20;;;0.20;;
16025;SDS011;8117;52.488;13.460;2023-03-01T16:38:30;1.17;;;0.67;;
16025;SDS011;8117;52.488;13.460;2023-03-01T16:41:18;1.30;;;1.20;;
16025;SDS011;8117;52.488;13.460;2023-03-01T16:44:04;1.17;;;0.40;;
16025;SDS011;8117;52.488;13.460;2023-03-01T16:46:38;2.07;;;1.10;;
16025;SDS011;8117;52.488;13.460;2023-03-01T16:49:07;1.53;;;0.60;;
16025;SDS011;8117;52.488;13.460;2023-03-01T16:57:28;1.73;;;0.80;;
16025;SDS011;8117;52.488;13.460;2023-03-01T17:00:00;0.27;;;0.27;;
16025;SDS011;8117;52.488;13.460;2023-03-01T17:02:34;1.03;;;0.60;;
16025;SDS011;8117;52.488;13.460;2023-03-01T17:05:08;0.77;;;0.77;;
16025;SDS011;8117;52.488;13.460;2023-03-01T17:07:36;1.63;;;1.00;;
16025;SDS011;8117;52.488;13.460;2023-03-01T17:10:18;0.33;;;0.30;;
16025;SDS011;8117;52.488;13.460;2023-03-01T17:12:47;1.70;;;1.27;;
16025;SDS011;8117;52.488;13.460;2023-03-01T17:15:14;1.67;;;1.33;;
16025;SDS011;8117;52.488;13.460;2023-03-01T17:17:43;3.73;;;0.73;;
16025;SDS011;8117;52.488;13.460;2023-03-01T17:20:18;0.40;;;0.40;;
16025;SDS011;8117;52.488;13.460;2023-03-01T17:22:51;0.67;;;0.47;;
16025;SDS011;8117;52.488;13.460;2023-03-01T17:25:41;0.77;;;0.53;;
16025;SDS011;8117;52.488;13.460;2023-03-01T17:28:19;1.10;;;0.67;;
16025;SDS011;8117;52.488;13.460;2023-03-01T17:30:53;0.80;;;0.70;;
16025;SDS011;8117;52.488;13.460;2023-03-01T17:33:21;1.70;;;0.97;;
16025;SDS011;8117;52.488;13.460;2023-03-01T17:35:57;1.10;;;1.00;;
16025;SDS011;8117;52.488;13.460;2023-03-01T17:38:24;0.40;;;0.40;;
16025;SDS011;8117;52.488;13.460;2023-03-01T17:41:01;2.80;;;1.00;;
16025;SDS011;8117;52.488;13.460;2023-03-01T17:43:28;1.10;;;0.60;;
16025;SDS011;8117;52.488;13.460;2023-03-01T17:46:02;1.57;;;1.07;;
16025;SDS011;8117;52.488;13.460;2023-03-01T17:48:44;0.50;;;0.50;;
16025;SDS011;8117;52.488;13.460;2023-03-01T17:51:11;1.60;;;0.80;;
16025;SDS011;8117;52.488;13.460;2023-03-01T17:53:38;0.70;;;0.50;;
16025;SDS011;8117;52.488;13.460;2023-03-01T17:56:07;1.17;;;0.83;;
16025;SDS011;8117;52.488;13.460;2023-03-01T17:58:40;2.13;;;1.33;;
16025;SDS011;8117;52.488;13.460;2023-03-01T18:01:07;0.60;;;0.50;;
16025;SDS011;8117;52.488;13.460;2023-03-01T18:03:38;1.80;;;0.80;;
16025;SDS011;8117;52.488;13.460;2023-03-01T18:06:09;0.57;;;0.57;;
16025;SDS011;8117;52.488;13.460;2023-03-01T18:08:37;1.07;;;0.97;;
16025;SDS011;8117;52.488;13.460;2023-03-01T18:11:04;2.70;;;1.93;;
16025;SDS011;8117;52.488;13.460;2023-03-01T18:13:44;0.87;;;0.70;;
16025;SDS011;8117;52.488;13.460;2023-03-01T18:16:13;1.13;;;0.87;;
16025;SDS011;8117;52.488;13.460;2023-03-01T18:18:43;1.90;;;1.10;;
16025;SDS011;8117;52.488;13.460;2023-03-01T18:21:10;2.47;;;1.27;;
16025;SDS011;8117;52.488;13.460;2023-03-01T18:23:37;2.30;;;1.10;;
16025;SDS011;8117;52.488;13.460;2023-03-01T18:26:05;3.20;;;1.13;;
16025;SDS011;8117;52.488;13.460;2023-03-01T18:28:33;0.40;;;0.40;;
16025;SDS011;8117;52.488;13.460;2023-03-01T18:31:02;1.40;;;1.03;;
16025;SDS011;8117;52.488;13.460;2023-03-01T18:33:32;0.80;;;0.80;;
16025;SDS011;8117;52.488;13.460;2023-03-01T18:35:59;0.80;;;0.80;;
16025;SDS011;8117;52.488;13.460;2023-03-01T18:38:27;3.27;;;1.30;;
16025;SDS011;8117;52.488;13.460;2023-03-01T18:40:54;3.03;;;1.33;;
16025;SDS011;8117;52.488;13.460;2023-03-01T18:43:21;2.67;;;1.03;;
16025;SDS011;8117;52.488;13.460;2023-03-01T18:45:54;4.20;;;1.17;;
16025;SDS011;8117;52.488;13.460;2023-03-01T18:48:23;4.87;;;1.30;;
16025;SDS011;8117;52.488;13.460;2023-03-01T18:50:50;0.93;;;0.80;;
16025;SDS011;8117;52.488;13.460;2023-03-01T18:53:16;1.33;;;0.70;;
16025;SDS011;8117;52.488;13.460;2023-03-01T18:55:43;1.23;;;0.90;;
16025;SDS011;8117;52.488;13.460;2023-03-01T18:58:10;1.20;;;0.90;;
16025;SDS011;8117;52.488;13.460;2023-03-01T19:00:37;3.83;;;1.87;;
16025;SDS011;8117;52.488;13.460;2023-03-01T19:03:06;2.97;;;1.57;;
16025;SDS011;8117;52.488;13.460;2023-03-01T19:08:39;2.97;;;1.40;;
16025;SDS011;8117;52.488;13.460;2023-03-01T19:11:08;1.03;;;0.93;;
16025;SDS011;8117;52.488;13.460;2023-03-01T19:13:44;4.53;;;1.73;;
16025;SDS011;8117;52.488;13.460;2023-03-01T19:16:12;3.00;;;1.50;;
16025;SDS011;8117;52.488;13.460;2023-03-01T19:18:41;1.93;;;1.70;;
16025;SDS011;8117;52.488;13.460;2023-03-01T19:21:16;2.07;;;1.33;;
16025;SDS011;8117;52.488;13.460;2023-03-01T19:23:44;1.90;;;1.27;;
16025;SDS011;8117;52.488;13.460;2023-03-01T19:26:12;8.53;;;2.00;;
16025;SDS011;8117;52.488;13.460;2023-03-01T19:28:42;3.77;;;1.40;;
16025;SDS011;8117;52.488;13.460;2023-03-01T19:31:10;3.23;;;1.73;;
16025;SDS011;8117;52.488;13.460;2023-03-01T19:33:47;2.77;;;1.60;;
16025;SDS011;8117;52.488;13.460;2023-03-01T19:36:23;3.57;;;1.80;;
16025;SDS011;8117;52.488;13.460;2023-03-01T19:39:07;2.93;;;1.73;;
16025;SDS011;8117;52.488;13.460;2023-03-01T19:41:48;2.87;;;1.77;;
16025;SDS011;8117;52.488;13.460;2023-03-01T19:44:18;2.50;;;1.67;;
16025;SDS011;8117;52.488;13.460;2023-03-01T19:46:50;1.67;;;1.57;;
16025;SDS011;8117;52.488;13.460;2023-03-01T19:49:30;3.17;;;1.60;;
16025;SDS011;8117;52.488;13.460;2023-03-01T19:52:03;3.03;;;2.10;;
16025;SDS011;8117;52.488;13.460;2023-03-01T19:57:50;1.57;;;1.27;;
16025;SDS011;8117;52.488;13.460;2023-03-01T20:00:17;3.03;;;2.00;;
16025;SDS011;8117;52.488;13.460;2023-03-01T20:02:45;3.90;;;1.43;;
16025;SDS011;8117;52.488;13.460;2023-03-01T20:05:13;3.13;;;1.93;;
16025;SDS011;8117;52.488;13.460;2023-03-01T20:07:41;2.53;;;1.60;;
16025;SDS011;8117;52.488;13.460;2023-03-01T20:10:13;3.40;;;1.30;;
16025;SDS011;8117;52.488;13.460;2023-03-01T20:12:40;5.77;;;2.00;;
16025;SDS011;8117;52.488;13.460;2023-03-01T20:15:09;1.60;;;1.50;;
16025;SDS011;8117;52.488;13.460;2023-03-01T20:17:43;2.17;;;1.83;;
16025;SDS011;8117;52.488;13.460;2023-03-01T20:20:17;7.70;;;2.10;;
16025;SDS011;8117;52.488;13.460;2023-03-01T20:22:45;3.23;;;1.47;;
16025;SDS011;8117;52.488;13.460;2023-03-01T20:25:12;1.83;;;1.63;;
16025;SDS011;8117;52.488;13.460;2023-03-01T20:27:42;2.63;;;2.43;;
16025;SDS011;8117;52.488;13.460;2023-03-01T20:30:12;2.03;;;1.50;;
16025;SDS011;8117;52.488;13.460;2023-03-01T20:32:42;4.33;;;2.97;;
16025;SDS011;8117;52.488;13.460;2023-03-01T20:35:12;2.37;;;1.97;;
16025;SDS011;8117;52.488;13.460;2023-03-01T20:37:51;4.67;;;2.70;;
16025;SDS011;8117;52.488;13.460;2023-03-01T20:40:22;4.00;;;1.57;;
16025;SDS011;8117;52.488;13.460;2023-03-01T20:42:52;3.37;;;2.30;;
16025;SDS011;8117;52.488;13.460;2023-03-01T20:45:21;4.63;;;1.83;;
16025;SDS011;8117;52.488;13.460;2023-03-01T20:47:49;2.33;;;1.20;;
16025;SDS011;8117;52.488;13.460;2023-03-01T20:50:17;5.27;;;1.83;;
16025;SDS011;8117;52.488;13.460;2023-03-01T20:52:46;3.77;;;1.33;;
16025;SDS011;8117;52.488;13.460;2023-03-01T20:55:15;1.93;;;1.80;;
16025;SDS011;8117;52.488;13.460;2023-03-01T20:57:44;3.27;;;2.47;;
16025;SDS011;8117;52.488;13.460;2023-03-01T21:00:11;1.70;;;1.60;;
16025;SDS011;8117;52.488;13.460;2023-03-01T21:02:44;3.70;;;2.37;;
16025;SDS011;8117;52.488;13.460;2023-03-01T21:05:11;3.97;;;1.77;;
16025;SDS011;8117;52.488;13.460;2023-03-01T21:08:55;1.20;;;1.17;;
16025;SDS011;8117;52.488;13.460;2023-03-01T21:11:15;3.87;;;2.90;;
16025;SDS011;8117;52.488;13.460;2023-03-01T21:13:43;3.30;;;2.60;;
16025;SDS011;8117;52.488;13.460;2023-03-01T21:16:13;3.93;;;1.93;;
16025;SDS011;8117;52.488;13.460;2023-03-01T21:21:38;3.73;;;2.37;;
16025;SDS011;8117;52.488;13.460;2023-03-01T21:24:14;4.47;;;2.67;;
16025;SDS011;8117;52.488;13.460;2023-03-01T21:37:43;5.57;;;3.80;;
16025;SDS011;8117;52.488;13.460;2023-03-01T21:40:19;6.53;;;2.80;;
16025;SDS011;8117;52.488;13.460;2023-03-01T21:42:53;6.50;;;3.73;;
16025;SDS011;8117;52.488;13.460;2023-03-01T21:45:36;4.57;;;2.27;;
16025;SDS011;8117;52.488;13.460;2023-03-01T21:48:23;3.00;;;2.10;;
16025;SDS011;8117;52.488;13.460;2023-03-01T21:51:09;2.40;;;2.20;;
16025;SDS011;8117;52.488;13.460;2023-03-01T21:53:58;4.23;;;2.50;;
16025;SDS011;8117;52.488;13.460;2023-03-01T21:56:31;5.47;;;3.50;;
16025;SDS011;8117;52.488;13.460;2023-03-01T21:59:29;2.10;;;1.90;;
16025;SDS011;8117;52.488;13.460;2023-03-01T22:02:05;6.30;;;3.37;;
16025;SDS011;8117;52.488;13.460;2023-03-01T22:04:33;3.27;;;2.57;;
16025;SDS011;8117;52.488;13.460;2023-03-01T22:07:00;6.60;;;3.90;;
16025;SDS011;8117;52.488;13.460;2023-03-01T22:09:29;5.60;;;3.30;;
16025;SDS011;8117;52.488;13.460;2023-03-01T22:11:59;6.37;;;3.90;;
16025;SDS011;8117;52.488;13.460;2023-03-01T22:14:30;5.70;;;3.47;;
16025;SDS011;8117;52.488;13.460;2023-03-01T22:17:15;3.47;;;2.90;;
16025;SDS011;8117;52.488;13.460;2023-03-01T22:19:54;3.43;;;3.10;;
16025;SDS011;8117;52.488;13.460;2023-03-01T22:22:30;4.83;;;3.10;;
16025;SDS011;8117;52.488;13.460;2023-03-01T22:24:59;3.77;;;3.27;;
16025;SDS011;8117;52.488;13.460;2023-03-01T22:27:30;4.90;;;2.57;;
16025;SDS011;8117;52.488;13.460;2023-03-01T22:30:05;3.00;;;1.83;;
16025;SDS011;8117;52.488;13.460;2023-03-01T22:32:35;4.77;;;2.53;;
16025;SDS011;8117;52.488;13.460;2023-03-01T22:35:10;2.77;;;2.33;;
16025;SDS011;8117;52.488;13.460;2023-03-01T22:38:16;3.40;;;2.37;;
16025;SDS011;8117;52.488;13.460;2023-03-01T22:43:46;10.90;;;3.57;;
16025;SDS011;8117;52.488;13.460;2023-03-01T22:46:18;5.33;;;3.73;;
16025;SDS011;8117;52.488;13.460;2023-03-01T22:48:52;9.40;;;3.10;;
16025;SDS011;8117;52.488;13.460;2023-03-01T22:51:41;8.43;;;4.53;;
16025;SDS011;8117;52.488;13.460;2023-03-01T22:54:17;9.37;;;3.30;;
16025;SDS011;8117;52.488;13.460;2023-03-01T22:56:47;5.43;;;2.90;;
16025;SDS011;8117;52.488;13.460;2023-03-01T22:59:32;6.03;;;3.40;;
16025;SDS011;8117;52.488;13.460;2023-03-01T23:02:36;8.57;;;3.57;;
16025;SDS011;8117;52.488;13.460;2023-03-01T23:08:40;9.23;;;3.73;;
16025;SDS011;8117;52.488;13.460;2023-03-01T23:11:18;8.03;;;4.57;;
16025;SDS011;8117;52.488;13.460;2023-03-01T23:13:49;6.90;;;4.37;;
16025;SDS011;8117;52.488;13.460;2023-03-01T23:16:36;4.13;;;3.53;;
16025;SDS011;8117;52.488;13.460;2023-03-01T23:19:26;4.40;;;4.00;;
16025;SDS011;8117;52.488;13.460;2023-03-01T23:21:57;5.37;;;4.00;;
16025;SDS011;8117;52.488;13.460;2023-03-01T23:24:35;6.43;;;3.30;;
16025;SDS011;8117;52.488;13.460;2023-03-01T23:27:15;5.50;;;3.93;;
16025;SDS011;8117;52.488;13.460;2023-03-01T23:30:17;6.50;;;4.13;;
16025;SDS011;8117;52.488;13.460;2023-03-01T23:33:00;4.37;;;2.80;;
16025;SDS011;8117;52.488;13.460;2023-03-01T23:39:13;5.13;;;2.23;;
16025;SDS011;8117;52.488;13.460;2023-03-01T23:42:02;7.37;;;3.40;;
16025;SDS011;8117;52.488;13.460;2023-03-01T23:44:45;5.00;;;2.87;;
16025;SDS011;8117;52.488;13.460;2023-03-01T23:47:22;5.77;;;3.63;;
16025;SDS011;8117;52.488;13.460;2023-03-01T23:49:53;5.17;;;2.97;;
16025;SDS011;8117;52.488;13.460;2023-03-01T23:52:32;5.63;;;3.77;;
16025;SDS011;8117;52.488;13.460;2023-03-01T23:55:15;5.90;;;3.57;;
16025;SDS011;8117;52.488;13.460;2023-03-01T23:57:51;8.17;;;4.13;;
